sensor_id;sensor_type;location;lat;lon;timestamp;temperature;humidity
76263;DHT22;65080;50.908;6.916;2023-01-13T00:00:53;13.00;72.10
76263;DHT22;65080;50.908;6.916;2023-01-13T00:03:21;13.10;72.10
76263;DHT22;65080;50.908;6.916;2023-01-13T00:05:50;13.10;72.00
76263;DHT22;65080;50.908;6.916;2023-01-13T00:08:18;13.10;71.80
76263;DHT22;65080;50.908;6.916;2023-01-13T00:10:46;13.10;71.70
76263;DHT22;65080;50.908;6.916;2023-01-13T00:13:15;13.10;71.60
76263;DHT22;65080;50.908;6.916;2023-01-13T00:15:43;13.10;71.40
76263;DHT22;65080;50.908;6.916;2023-01-13T00:18:13;13.20;71.40
76263;DHT22;65080;50.908;6.916;2023-01-13T00:20:41;13.20;71.50
76263;DHT22;65080;50.908;6.916;2023-01-13T00:23:10;13.20;71.50
76263;DHT22;65080;50.908;6.916;2023-01-13T00:25:38;13.20;71.40
76263;DHT22;65080;50.908;6.916;2023-01-13T00:28:06;13.20;71.40
76263;DHT22;65080;50.908;6.916;2023-01-13T00:30:36;13.20;71.40
76263;DHT22;65080;50.908;6.916;2023-01-13T00:33:04;13.20;71.40
76263;DHT22;65080;50.908;6.916;2023-01-13T00:35:34;13.20;71.30
76263;DHT22;65080;50.908;6.916;2023-01-13T00:38:02;13.20;71.10
76263;DHT22;65080;50.908;6.916;2023-01-13T00:40:30;13.20;71.00
76263;DHT22;65080;50.908;6.916;2023-01-13T00:42:59;13.20;70.70
76263;DHT22;65080;50.908;6.916;2023-01-13T00:45:45;13.20;70.20
76263;DHT22;65080;50.908;6.916;2023-01-13T00:48:13;13.10;69.70
76263;DHT22;65080;50.908;6.916;2023-01-13T00:50:43;13.10;69.60
76263;DHT22;65080;50.908;6.916;2023-01-13T00:53:12;13.10;69.60
76263;DHT22;65080;50.908;6.916;2023-01-13T00:55:40;13.10;69.50
76263;DHT22;65080;50.908;6.916;2023-01-13T00:58:09;13.10;69.30
76263;DHT22;65080;50.908;6.916;2023-01-13T01:00:37;13.00;68.70
76263;DHT22;65080;50.908;6.916;2023-01-13T01:03:05;13.00;68.40
76263;DHT22;65080;50.908;6.916;2023-01-13T01:05:38;13.00;68.20
76263;DHT22;65080;50.908;6.916;2023-01-13T01:08:08;13.00;67.60
76263;DHT22;65080;50.908;6.916;2023-01-13T01:10:36;13.00;66.80
76263;DHT22;65080;50.908;6.916;2023-01-13T01:13:05;12.90;66.00
76263;DHT22;65080;50.908;6.916;2023-01-13T01:15:33;12.90;65.60
76263;DHT22;65080;50.908;6.916;2023-01-13T01:18:02;12.80;65.10
76263;DHT22;65080;50.908;6.916;2023-01-13T01:20:30;12.80;64.90
76263;DHT22;65080;50.908;6.916;2023-01-13T01:22:58;12.70;64.70
76263;DHT22;65080;50.908;6.916;2023-01-13T01:25:28;12.70;64.90
76263;DHT22;65080;50.908;6.916;2023-01-13T01:27:56;12.60;64.70
76263;DHT22;65080;50.908;6.916;2023-01-13T01:30:25;12.60;64.30
76263;DHT22;65080;50.908;6.916;2023-01-13T01:32:53;12.60;64.10
76263;DHT22;65080;50.908;6.916;2023-01-13T01:35:23;12.60;63.80
76263;DHT22;65080;50.908;6.916;2023-01-13T01:37:52;12.60;63.30
76263;DHT22;65080;50.908;6.916;2023-01-13T01:40:20;12.60;62.40
76263;DHT22;65080;50.908;6.916;2023-01-13T01:42:50;12.50;62.00
76263;DHT22;65080;50.908;6.916;2023-01-13T01:45:35;12.50;61.30
76263;DHT22;65080;50.908;6.916;2023-01-13T01:48:05;12.40;61.00
76263;DHT22;65080;50.908;6.916;2023-01-13T01:50:35;12.40;61.20
76263;DHT22;65080;50.908;6.916;2023-01-13T01:53:10;12.30;61.00
76263;DHT22;65080;50.908;6.916;2023-01-13T01:55:39;12.10;60.80
76263;DHT22;65080;50.908;6.916;2023-01-13T01:58:11;11.90;61.10
76263;DHT22;65080;50.908;6.916;2023-01-13T02:00:42;11.70;61.30
76263;DHT22;65080;50.908;6.916;2023-01-13T02:03:10;11.60;61.70
76263;DHT22;65080;50.908;6.916;2023-01-13T02:05:39;11.50;62.10
76263;DHT22;65080;50.908;6.916;2023-01-13T02:08:09;11.40;62.50
76263;DHT22;65080;50.908;6.916;2023-01-13T02:10:39;11.30;62.80
76263;DHT22;65080;50.908;6.916;2023-01-13T02:13:11;11.20;63.10
76263;DHT22;65080;50.908;6.916;2023-01-13T02:15:43;11.20;63.60
76263;DHT22;65080;50.908;6.916;2023-01-13T02:18:35;11.20;64.00
76263;DHT22;65080;50.908;6.916;2023-01-13T02:30:43;11.20;65.00
76263;DHT22;65080;50.908;6.916;2023-01-13T02:33:36;11.20;65.00
76263;DHT22;65080;50.908;6.916;2023-01-13T02:36:12;11.20;65.10
76263;DHT22;65080;50.908;6.916;2023-01-13T02:38:49;11.20;65.10
76263;DHT22;65080;50.908;6.916;2023-01-13T02:41:23;11.20;64.90
76263;DHT22;65080;50.908;6.916;2023-01-13T02:44:12;11.20;64.70
76263;DHT22;65080;50.908;6.916;2023-01-13T02:46:50;11.20;64.30
76263;DHT22;65080;50.908;6.916;2023-01-13T02:49:29;11.20;64.00
76263;DHT22;65080;50.908;6.916;2023-01-13T02:52:05;11.30;63.60
76263;DHT22;65080;50.908;6.916;2023-01-13T02:54:35;11.30;63.10
76263;DHT22;65080;50.908;6.916;2023-01-13T02:57:06;11.30;62.80
76263;DHT22;65080;50.908;6.916;2023-01-13T02:59:36;11.30;62.20
76263;DHT22;65080;50.908;6.916;2023-01-13T03:02:10;11.30;61.60
76263;DHT22;65080;50.908;6.916;2023-01-13T03:04:51;11.30;61.20
76263;DHT22;65080;50.908;6.916;2023-01-13T03:07:47;11.30;60.70
76263;DHT22;65080;50.908;6.916;2023-01-13T03:10:26;11.30;60.20
76263;DHT22;65080;50.908;6.916;2023-01-13T03:13:06;11.30;60.30
76263;DHT22;65080;50.908;6.916;2023-01-13T03:15:42;11.30;60.10
76263;DHT22;65080;50.908;6.916;2023-01-13T03:18:28;11.30;60.00
76263;DHT22;65080;50.908;6.916;2023-01-13T03:21:04;11.30;59.60
76263;DHT22;65080;50.908;6.916;2023-01-13T03:23:38;11.30;59.50
76263;DHT22;65080;50.908;6.916;2023-01-13T03:26:13;11.30;59.40
76263;DHT22;65080;50.908;6.916;2023-01-13T03:28:47;11.30;59.40
76263;DHT22;65080;50.908;6.916;2023-01-13T03:31:21;11.30;59.30
76263;DHT22;65080;50.908;6.916;2023-01-13T03:33:56;11.30;59.20
76263;DHT22;65080;50.908;6.916;2023-01-13T03:36:29;11.30;59.10
76263;DHT22;65080;50.908;6.916;2023-01-13T03:39:01;11.20;59.00
76263;DHT22;65080;50.908;6.916;2023-01-13T03:41:34;11.20;59.00
76263;DHT22;65080;50.908;6.916;2023-01-13T03:44:07;11.20;59.00
76263;DHT22;65080;50.908;6.916;2023-01-13T03:46:59;11.20;59.00
76263;DHT22;65080;50.908;6.916;2023-01-13T03:49:36;11.20;59.00
76263;DHT22;65080;50.908;6.916;2023-01-13T03:52:09;11.20;59.00
76263;DHT22;65080;50.908;6.916;2023-01-13T03:54:44;11.20;59.10
76263;DHT22;65080;50.908;6.916;2023-01-13T03:57:15;11.20;59.70
76263;DHT22;65080;50.908;6.916;2023-01-13T03:59:48;11.20;59.10
76263;DHT22;65080;50.908;6.916;2023-01-13T04:02:23;11.20;59.00
76263;DHT22;65080;50.908;6.916;2023-01-13T04:04:57;11.20;59.00
76263;DHT22;65080;50.908;6.916;2023-01-13T04:07:34;11.10;59.00
76263;DHT22;65080;50.908;6.916;2023-01-13T04:10:08;11.10;59.10
76263;DHT22;65080;50.908;6.916;2023-01-13T04:12:41;11.10;59.10
76263;DHT22;65080;50.908;6.916;2023-01-13T04:15:33;11.10;59.10
76263;DHT22;65080;50.908;6.916;2023-01-13T04:18:09;11.10;59.20
76263;DHT22;65080;50.908;6.916;2023-01-13T04:20:41;11.10;59.30
76263;DHT22;65080;50.908;6.916;2023-01-13T04:23:10;11.10;59.40
76263;DHT22;65080;50.908;6.916;2023-01-13T04:25:39;11.00;59.30
76263;DHT22;65080;50.908;6.916;2023-01-13T04:28:08;11.10;59.50
76263;DHT22;65080;50.908;6.916;2023-01-13T04:30:37;11.00;59.40
76263;DHT22;65080;50.908;6.916;2023-01-13T04:33:05;10.90;59.40
76263;DHT22;65080;50.908;6.916;2023-01-13T04:35:34;10.90;59.50
76263;DHT22;65080;50.908;6.916;2023-01-13T04:38:07;10.90;59.60
76263;DHT22;65080;50.908;6.916;2023-01-13T04:40:35;10.90;59.60
76263;DHT22;65080;50.908;6.916;2023-01-13T04:43:04;10.80;59.60
76263;DHT22;65080;50.908;6.916;2023-01-13T04:45:32;10.80;59.60
76263;DHT22;65080;50.908;6.916;2023-01-13T04:48:01;10.70;59.60
76263;DHT22;65080;50.908;6.916;2023-01-13T04:50:29;10.70;59.70
76263;DHT22;65080;50.908;6.916;2023-01-13T04:52:57;10.60;59.70
76263;DHT22;65080;50.908;6.916;2023-01-13T04:55:28;10.60;59.80
76263;DHT22;65080;50.908;6.916;2023-01-13T04:58:01;10.60;59.80
76263;DHT22;65080;50.908;6.916;2023-01-13T05:00:30;10.60;59.90
76263;DHT22;65080;50.908;6.916;2023-01-13T05:02:58;10.60;60.00
76263;DHT22;65080;50.908;6.916;2023-01-13T05:05:27;10.50;59.90
76263;DHT22;65080;50.908;6.916;2023-01-13T05:07:56;10.50;60.00
76263;DHT22;65080;50.908;6.916;2023-01-13T05:10:24;10.50;60.00
76263;DHT22;65080;50.908;6.916;2023-01-13T05:12:54;10.50;60.00
76263;DHT22;65080;50.908;6.916;2023-01-13T05:15:40;10.50;59.90
76263;DHT22;65080;50.908;6.916;2023-01-13T05:18:28;10.50;60.00
76263;DHT22;65080;50.908;6.916;2023-01-13T05:20:56;10.50;60.00
76263;DHT22;65080;50.908;6.916;2023-01-13T05:23:24;10.50;59.90
76263;DHT22;65080;50.908;6.916;2023-01-13T05:26:10;10.50;60.00
76263;DHT22;65080;50.908;6.916;2023-01-13T05:28:40;10.50;60.00
76263;DHT22;65080;50.908;6.916;2023-01-13T05:31:08;10.50;60.00
76263;DHT22;65080;50.908;6.916;2023-01-13T05:33:38;10.50;59.80
76263;DHT22;65080;50.908;6.916;2023-01-13T05:36:07;10.40;59.80
76263;DHT22;65080;50.908;6.916;2023-01-13T05:38:35;10.40;59.80
76263;DHT22;65080;50.908;6.916;2023-01-13T05:41:04;10.40;59.80
76263;DHT22;65080;50.908;6.916;2023-01-13T05:43:52;10.40;59.80
76263;DHT22;65080;50.908;6.916;2023-01-13T05:46:20;10.40;59.80
76263;DHT22;65080;50.908;6.916;2023-01-13T05:48:48;10.40;59.90
76263;DHT22;65080;50.908;6.916;2023-01-13T05:51:17;10.40;59.90
76263;DHT22;65080;50.908;6.916;2023-01-13T05:53:48;10.40;60.20
76263;DHT22;65080;50.908;6.916;2023-01-13T05:56:16;10.40;59.90
76263;DHT22;65080;50.908;6.916;2023-01-13T05:58:44;10.40;59.90
76263;DHT22;65080;50.908;6.916;2023-01-13T06:01:14;10.40;60.00
76263;DHT22;65080;50.908;6.916;2023-01-13T06:03:42;10.40;59.90
76263;DHT22;65080;50.908;6.916;2023-01-13T06:06:10;10.40;59.90
76263;DHT22;65080;50.908;6.916;2023-01-13T06:08:38;10.40;59.80
76263;DHT22;65080;50.908;6.916;2023-01-13T06:11:06;10.40;59.80
76263;DHT22;65080;50.908;6.916;2023-01-13T06:13:35;10.40;59.80
76263;DHT22;65080;50.908;6.916;2023-01-13T06:16:03;10.40;59.80
76263;DHT22;65080;50.908;6.916;2023-01-13T06:18:33;10.40;59.80
76263;DHT22;65080;50.908;6.916;2023-01-13T06:21:01;10.40;59.80
76263;DHT22;65080;50.908;6.916;2023-01-13T06:23:31;10.40;59.70
76263;DHT22;65080;50.908;6.916;2023-01-13T06:26:06;10.50;59.80
76263;DHT22;65080;50.908;6.916;2023-01-13T06:28:35;10.40;59.80
76263;DHT22;65080;50.908;6.916;2023-01-13T06:31:05;10.50;59.90
76263;DHT22;65080;50.908;6.916;2023-01-13T06:33:37;10.50;60.00
76263;DHT22;65080;50.908;6.916;2023-01-13T06:36:10;10.40;59.80
76263;DHT22;65080;50.908;6.916;2023-01-13T06:38:41;10.50;60.00
76263;DHT22;65080;50.908;6.916;2023-01-13T06:41:11;10.60;60.10
76263;DHT22;65080;50.908;6.916;2023-01-13T06:43:39;10.50;59.90
76263;DHT22;65080;50.908;6.916;2023-01-13T06:46:07;10.50;59.90
76263;DHT22;65080;50.908;6.916;2023-01-13T06:48:37;10.50;59.90
76263;DHT22;65080;50.908;6.916;2023-01-13T06:51:07;10.50;59.80
76263;DHT22;65080;50.908;6.916;2023-01-13T06:53:35;10.50;59.80
76263;DHT22;65080;50.908;6.916;2023-01-13T06:56:04;10.50;59.80
76263;DHT22;65080;50.908;6.916;2023-01-13T06:58:32;10.50;59.80
76263;DHT22;65080;50.908;6.916;2023-01-13T07:01:00;10.50;59.70
76263;DHT22;65080;50.908;6.916;2023-01-13T07:03:29;10.50;59.70
76263;DHT22;65080;50.908;6.916;2023-01-13T07:05:58;10.50;59.70
76263;DHT22;65080;50.908;6.916;2023-01-13T07:08:28;10.50;60.30
76263;DHT22;65080;50.908;6.916;2023-01-13T07:10:56;10.50;59.60
76263;DHT22;65080;50.908;6.916;2023-01-13T07:13:26;10.50;59.80
76263;DHT22;65080;50.908;6.916;2023-01-13T07:16:12;10.60;59.50
76263;DHT22;65080;50.908;6.916;2023-01-13T07:18:40;10.50;59.50
76263;DHT22;65080;50.908;6.916;2023-01-13T07:21:11;10.50;59.50
76263;DHT22;65080;50.908;6.916;2023-01-13T07:23:40;10.50;59.60
76263;DHT22;65080;50.908;6.916;2023-01-13T07:26:10;10.50;59.60
76263;DHT22;65080;50.908;6.916;2023-01-13T07:28:38;10.50;59.60
76263;DHT22;65080;50.908;6.916;2023-01-13T07:31:13;10.50;59.60
76263;DHT22;65080;50.908;6.916;2023-01-13T07:33:41;10.40;59.60
76263;DHT22;65080;50.908;6.916;2023-01-13T07:36:11;10.40;59.60
76263;DHT22;65080;50.908;6.916;2023-01-13T07:38:40;10.40;59.60
76263;DHT22;65080;50.908;6.916;2023-01-13T07:41:12;10.40;59.60
76263;DHT22;65080;50.908;6.916;2023-01-13T07:44:03;10.40;59.60
76263;DHT22;65080;50.908;6.916;2023-01-13T07:46:32;10.30;59.50
76263;DHT22;65080;50.908;6.916;2023-01-13T07:49:00;10.30;59.60
76263;DHT22;65080;50.908;6.916;2023-01-13T07:51:30;10.20;59.70
76263;DHT22;65080;50.908;6.916;2023-01-13T07:53:59;10.20;60.60
76263;DHT22;65080;50.908;6.916;2023-01-13T07:56:27;10.10;60.00
76263;DHT22;65080;50.908;6.916;2023-01-13T07:58:55;10.10;60.10
76263;DHT22;65080;50.908;6.916;2023-01-13T08:01:26;10.00;60.20
76263;DHT22;65080;50.908;6.916;2023-01-13T08:03:55;10.00;60.40
76263;DHT22;65080;50.908;6.916;2023-01-13T08:06:24;9.90;61.50
76263;DHT22;65080;50.908;6.916;2023-01-13T08:08:54;9.90;61.70
76263;DHT22;65080;50.908;6.916;2023-01-13T08:11:22;9.90;61.90
76263;DHT22;65080;50.908;6.916;2023-01-13T08:13:54;9.90;62.00
76263;DHT22;65080;50.908;6.916;2023-01-13T08:16:23;9.80;62.00
76263;DHT22;65080;50.908;6.916;2023-01-13T08:18:51;9.70;62.10
76263;DHT22;65080;50.908;6.916;2023-01-13T08:21:19;9.80;62.40
76263;DHT22;65080;50.908;6.916;2023-01-13T08:23:48;9.80;62.60
76263;DHT22;65080;50.908;6.916;2023-01-13T08:26:18;9.80;62.60
76263;DHT22;65080;50.908;6.916;2023-01-13T08:28:46;9.80;62.70
76263;DHT22;65080;50.908;6.916;2023-01-13T08:31:15;9.80;62.80
76263;DHT22;65080;50.908;6.916;2023-01-13T08:33:46;9.80;62.90
76263;DHT22;65080;50.908;6.916;2023-01-13T08:36:14;9.80;62.90
76263;DHT22;65080;50.908;6.916;2023-01-13T08:38:44;9.80;63.00
76263;DHT22;65080;50.908;6.916;2023-01-13T08:41:15;9.90;63.00
76263;DHT22;65080;50.908;6.916;2023-01-13T08:44:05;9.90;62.90
76263;DHT22;65080;50.908;6.916;2023-01-13T08:46:35;9.90;62.80
76263;DHT22;65080;50.908;6.916;2023-01-13T08:49:03;10.00;61.70
76263;DHT22;65080;50.908;6.916;2023-01-13T08:51:32;10.00;61.40
76263;DHT22;65080;50.908;6.916;2023-01-13T08:54:00;10.10;61.40
76263;DHT22;65080;50.908;6.916;2023-01-13T08:56:29;10.10;61.20
76263;DHT22;65080;50.908;6.916;2023-01-13T08:59:01;10.20;61.10
76263;DHT22;65080;50.908;6.916;2023-01-13T09:01:31;10.20;60.90
76263;DHT22;65080;50.908;6.916;2023-01-13T09:04:00;10.20;60.70
76263;DHT22;65080;50.908;6.916;2023-01-13T09:06:28;10.30;60.60
76263;DHT22;65080;50.908;6.916;2023-01-13T09:08:57;10.30;60.50
76263;DHT22;65080;50.908;6.916;2023-01-13T09:11:29;10.30;60.40
76263;DHT22;65080;50.908;6.916;2023-01-13T09:14:17;10.40;60.30
76263;DHT22;65080;50.908;6.916;2023-01-13T09:16:47;10.40;60.20
76263;DHT22;65080;50.908;6.916;2023-01-13T09:19:15;10.40;59.90
76263;DHT22;65080;50.908;6.916;2023-01-13T09:21:44;10.50;59.80
76263;DHT22;65080;50.908;6.916;2023-01-13T09:24:12;10.50;59.50
76263;DHT22;65080;50.908;6.916;2023-01-13T09:26:40;10.50;59.40
76263;DHT22;65080;50.908;6.916;2023-01-13T09:29:09;10.60;59.30
76263;DHT22;65080;50.908;6.916;2023-01-13T09:31:38;10.60;59.20
76263;DHT22;65080;50.908;6.916;2023-01-13T09:34:13;10.60;59.10
76263;DHT22;65080;50.908;6.916;2023-01-13T09:37:00;10.60;59.00
76263;DHT22;65080;50.908;6.916;2023-01-13T09:39:32;10.70;58.90
76263;DHT22;65080;50.908;6.916;2023-01-13T09:42:03;10.70;58.80
76263;DHT22;65080;50.908;6.916;2023-01-13T09:44:55;10.70;58.70
76263;DHT22;65080;50.908;6.916;2023-01-13T09:47:30;10.80;58.50
76263;DHT22;65080;50.908;6.916;2023-01-13T09:50:15;10.80;58.40
76263;DHT22;65080;50.908;6.916;2023-01-13T09:52:44;10.80;58.20
76263;DHT22;65080;50.908;6.916;2023-01-13T09:55:15;10.90;58.20
76263;DHT22;65080;50.908;6.916;2023-01-13T09:57:43;10.90;58.00
76263;DHT22;65080;50.908;6.916;2023-01-13T10:00:15;11.00;58.00
76263;DHT22;65080;50.908;6.916;2023-01-13T10:03:04;11.00;57.90
76263;DHT22;65080;50.908;6.916;2023-01-13T10:05:38;11.10;57.80
76263;DHT22;65080;50.908;6.916;2023-01-13T10:08:11;11.10;57.80
76263;DHT22;65080;50.908;6.916;2023-01-13T10:10:43;11.10;57.70
76263;DHT22;65080;50.908;6.916;2023-01-13T10:13:18;11.10;57.60
76263;DHT22;65080;50.908;6.916;2023-01-13T10:15:55;11.20;57.50
76263;DHT22;65080;50.908;6.916;2023-01-13T10:18:27;11.20;57.40
76263;DHT22;65080;50.908;6.916;2023-01-13T10:21:11;11.20;57.40
76263;DHT22;65080;50.908;6.916;2023-01-13T10:23:54;11.20;57.30
76263;DHT22;65080;50.908;6.916;2023-01-13T10:26:42;11.20;57.60
76263;DHT22;65080;50.908;6.916;2023-01-13T10:29:20;11.20;56.90
76263;DHT22;65080;50.908;6.916;2023-01-13T10:31:51;11.20;56.90
76263;DHT22;65080;50.908;6.916;2023-01-13T10:34:20;11.20;56.90
76263;DHT22;65080;50.908;6.916;2023-01-13T10:36:59;11.20;56.80
76263;DHT22;65080;50.908;6.916;2023-01-13T10:39:38;11.20;56.70
76263;DHT22;65080;50.908;6.916;2023-01-13T10:42:12;11.30;56.70
76263;DHT22;65080;50.908;6.916;2023-01-13T10:44:48;11.30;56.70
76263;DHT22;65080;50.908;6.916;2023-01-13T10:47:23;11.30;56.70
76263;DHT22;65080;50.908;6.916;2023-01-13T10:50:15;11.40;56.80
76263;DHT22;65080;50.908;6.916;2023-01-13T10:52:58;11.40;56.60
76263;DHT22;65080;50.908;6.916;2023-01-13T10:55:29;11.50;56.70
76263;DHT22;65080;50.908;6.916;2023-01-13T10:58:11;11.50;56.60
76263;DHT22;65080;50.908;6.916;2023-01-13T11:00:41;11.50;56.40
76263;DHT22;65080;50.908;6.916;2023-01-13T11:03:15;11.50;56.30
76263;DHT22;65080;50.908;6.916;2023-01-13T11:05:49;11.50;56.10
76263;DHT22;65080;50.908;6.916;2023-01-13T11:08:21;11.50;56.00
76263;DHT22;65080;50.908;6.916;2023-01-13T11:10:52;11.50;56.00
76263;DHT22;65080;50.908;6.916;2023-01-13T11:13:27;11.50;56.10
76263;DHT22;65080;50.908;6.916;2023-01-13T11:16:02;11.50;55.90
76263;DHT22;65080;50.908;6.916;2023-01-13T11:18:39;11.50;55.80
76263;DHT22;65080;50.908;6.916;2023-01-13T11:21:16;11.50;55.80
76263;DHT22;65080;50.908;6.916;2023-01-13T11:23:59;11.60;55.80
76263;DHT22;65080;50.908;6.916;2023-01-13T11:26:37;11.60;55.70
76263;DHT22;65080;50.908;6.916;2023-01-13T11:29:12;11.60;55.50
76263;DHT22;65080;50.908;6.916;2023-01-13T11:31:46;11.60;55.40
76263;DHT22;65080;50.908;6.916;2023-01-13T11:34:24;11.60;55.20
76263;DHT22;65080;50.908;6.916;2023-01-13T11:36:56;11.70;55.40
76263;DHT22;65080;50.908;6.916;2023-01-13T11:39:32;11.70;55.30
76263;DHT22;65080;50.908;6.916;2023-01-13T11:42:02;11.70;55.10
76263;DHT22;65080;50.908;6.916;2023-01-13T11:44:57;11.70;55.00
76263;DHT22;65080;50.908;6.916;2023-01-13T11:47:29;11.70;54.90
76263;DHT22;65080;50.908;6.916;2023-01-13T11:49:59;11.70;54.90
76263;DHT22;65080;50.908;6.916;2023-01-13T11:52:44;11.80;55.00
76263;DHT22;65080;50.908;6.916;2023-01-13T11:55:30;11.80;54.70
76263;DHT22;65080;50.908;6.916;2023-01-13T11:58:25;11.80;54.50
76263;DHT22;65080;50.908;6.916;2023-01-13T12:01:05;11.80;54.20
76263;DHT22;65080;50.908;6.916;2023-01-13T12:03:40;11.80;54.10
76263;DHT22;65080;50.908;6.916;2023-01-13T12:06:20;11.70;54.00
76263;DHT22;65080;50.908;6.916;2023-01-13T12:09:09;11.70;54.00
76263;DHT22;65080;50.908;6.916;2023-01-13T12:11:50;11.70;54.00
76263;DHT22;65080;50.908;6.916;2023-01-13T12:14:49;11.70;54.00
76263;DHT22;65080;50.908;6.916;2023-01-13T12:17:25;11.70;53.90
76263;DHT22;65080;50.908;6.916;2023-01-13T12:19:59;11.70;53.80
76263;DHT22;65080;50.908;6.916;2023-01-13T12:22:30;11.70;53.80
76263;DHT22;65080;50.908;6.916;2023-01-13T12:25:06;11.70;53.70
76263;DHT22;65080;50.908;6.916;2023-01-13T12:27:44;11.70;53.60
76263;DHT22;65080;50.908;6.916;2023-01-13T12:30:22;11.60;53.60
76263;DHT22;65080;50.908;6.916;2023-01-13T12:32:53;11.60;53.70
76263;DHT22;65080;50.908;6.916;2023-01-13T12:35:33;11.60;54.00
76263;DHT22;65080;50.908;6.916;2023-01-13T12:38:08;11.50;54.20
76263;DHT22;65080;50.908;6.916;2023-01-13T12:40:50;11.50;54.60
76263;DHT22;65080;50.908;6.916;2023-01-13T12:43:23;11.40;54.90
76263;DHT22;65080;50.908;6.916;2023-01-13T12:46:34;11.30;55.20
76263;DHT22;65080;50.908;6.916;2023-01-13T12:49:11;11.30;55.60
76263;DHT22;65080;50.908;6.916;2023-01-13T12:52:03;11.20;55.70
76263;DHT22;65080;50.908;6.916;2023-01-13T12:57:35;11.10;56.20
76263;DHT22;65080;50.908;6.916;2023-01-13T13:00:15;11.00;56.30
76263;DHT22;65080;50.908;6.916;2023-01-13T13:03:22;11.00;56.50
76263;DHT22;65080;50.908;6.916;2023-01-13T13:06:06;11.00;56.80
76263;DHT22;65080;50.908;6.916;2023-01-13T13:09:00;10.90;57.00
76263;DHT22;65080;50.908;6.916;2023-01-13T13:11:39;11.00;57.40
76263;DHT22;65080;50.908;6.916;2023-01-13T13:14:59;10.90;57.70
76263;DHT22;65080;50.908;6.916;2023-01-13T13:17:44;10.90;58.60
76263;DHT22;65080;50.908;6.916;2023-01-13T13:23:44;10.50;60.30
76263;DHT22;65080;50.908;6.916;2023-01-13T13:26:22;10.30;60.90
76263;DHT22;65080;50.908;6.916;2023-01-13T13:32:10;10.10;63.20
76263;DHT22;65080;50.908;6.916;2023-01-13T13:34:47;10.00;64.00
76263;DHT22;65080;50.908;6.916;2023-01-13T13:40:39;9.80;67.00
76263;DHT22;65080;50.908;6.916;2023-01-13T13:43:26;9.70;67.60
76263;DHT22;65080;50.908;6.916;2023-01-13T13:46:26;9.60;68.30
76263;DHT22;65080;50.908;6.916;2023-01-13T13:49:13;9.50;69.00
76263;DHT22;65080;50.908;6.916;2023-01-13T13:51:47;9.50;69.70
76263;DHT22;65080;50.908;6.916;2023-01-13T13:54:17;9.50;70.40
76263;DHT22;65080;50.908;6.916;2023-01-13T13:56:47;9.50;71.00
76263;DHT22;65080;50.908;6.916;2023-01-13T13:59:18;9.50;71.70
76263;DHT22;65080;50.908;6.916;2023-01-13T14:01:50;9.50;72.00
76263;DHT22;65080;50.908;6.916;2023-01-13T14:04:20;9.50;72.60
76263;DHT22;65080;50.908;6.916;2023-01-13T14:06:54;9.40;72.60
76263;DHT22;65080;50.908;6.916;2023-01-13T14:09:24;9.40;72.80
76263;DHT22;65080;50.908;6.916;2023-01-13T14:11:56;9.30;73.00
76263;DHT22;65080;50.908;6.916;2023-01-13T14:14:25;9.30;73.50
76263;DHT22;65080;50.908;6.916;2023-01-13T14:16:53;9.30;73.90
76263;DHT22;65080;50.908;6.916;2023-01-13T14:19:27;9.30;74.20
76263;DHT22;65080;50.908;6.916;2023-01-13T14:21:58;9.30;74.30
76263;DHT22;65080;50.908;6.916;2023-01-13T14:24:28;9.30;74.40
76263;DHT22;65080;50.908;6.916;2023-01-13T14:27:12;9.30;74.40
76263;DHT22;65080;50.908;6.916;2023-01-13T14:29:41;9.40;74.40
76263;DHT22;65080;50.908;6.916;2023-01-13T14:32:13;9.40;74.40
76263;DHT22;65080;50.908;6.916;2023-01-13T14:34:42;9.40;74.10
76263;DHT22;65080;50.908;6.916;2023-01-13T14:37:27;9.40;74.10
76263;DHT22;65080;50.908;6.916;2023-01-13T14:39:57;9.40;74.10
76263;DHT22;65080;50.908;6.916;2023-01-13T14:42:26;9.50;74.90
76263;DHT22;65080;50.908;6.916;2023-01-13T14:44:56;9.60;74.30
76263;DHT22;65080;50.908;6.916;2023-01-13T14:47:26;9.60;74.20
76263;DHT22;65080;50.908;6.916;2023-01-13T14:49:59;9.60;74.10
76263;DHT22;65080;50.908;6.916;2023-01-13T14:52:31;9.70;74.20
76263;DHT22;65080;50.908;6.916;2023-01-13T14:55:23;9.70;74.10
76263;DHT22;65080;50.908;6.916;2023-01-13T14:58:24;9.70;73.90
76263;DHT22;65080;50.908;6.916;2023-01-13T15:01:25;9.70;73.80
76263;DHT22;65080;50.908;6.916;2023-01-13T15:06:37;9.80;74.00
76263;DHT22;65080;50.908;6.916;2023-01-13T15:09:12;9.70;73.80
76263;DHT22;65080;50.908;6.916;2023-01-13T15:11:40;9.80;73.80
76263;DHT22;65080;50.908;6.916;2023-01-13T15:14:09;9.80;73.80
76263;DHT22;65080;50.908;6.916;2023-01-13T15:16:39;9.80;73.50
76263;DHT22;65080;50.908;6.916;2023-01-13T15:19:08;9.80;73.40
76263;DHT22;65080;50.908;6.916;2023-01-13T15:21:36;9.90;73.50
76263;DHT22;65080;50.908;6.916;2023-01-13T15:24:05;9.90;73.50
76263;DHT22;65080;50.908;6.916;2023-01-13T15:26:36;9.90;73.10
76263;DHT22;65080;50.908;6.916;2023-01-13T15:29:10;10.00;72.10
76263;DHT22;65080;50.908;6.916;2023-01-13T15:31:40;10.00;71.70
76263;DHT22;65080;50.908;6.916;2023-01-13T15:34:08;10.00;71.50
76263;DHT22;65080;50.908;6.916;2023-01-13T15:36:38;10.00;71.10
76263;DHT22;65080;50.908;6.916;2023-01-13T15:39:10;10.00;70.90
76263;DHT22;65080;50.908;6.916;2023-01-13T15:41:40;10.00;70.60
76263;DHT22;65080;50.908;6.916;2023-01-13T15:44:26;10.00;71.20
76263;DHT22;65080;50.908;6.916;2023-01-13T15:47:21;10.00;70.40
76263;DHT22;65080;50.908;6.916;2023-01-13T15:49:51;10.00;70.40
76263;DHT22;65080;50.908;6.916;2023-01-13T15:52:22;10.00;70.30
76263;DHT22;65080;50.908;6.916;2023-01-13T15:54:52;10.00;70.50
76263;DHT22;65080;50.908;6.916;2023-01-13T15:57:23;10.00;70.40
76263;DHT22;65080;50.908;6.916;2023-01-13T15:59:55;10.00;70.40
76263;DHT22;65080;50.908;6.916;2023-01-13T16:02:24;10.00;70.40
76263;DHT22;65080;50.908;6.916;2023-01-13T16:04:53;10.00;70.30
76263;DHT22;65080;50.908;6.916;2023-01-13T16:07:23;10.00;70.20
76263;DHT22;65080;50.908;6.916;2023-01-13T16:09:52;10.00;70.10
76263;DHT22;65080;50.908;6.916;2023-01-13T16:12:21;10.00;70.20
76263;DHT22;65080;50.908;6.916;2023-01-13T16:14:50;10.00;70.40
76263;DHT22;65080;50.908;6.916;2023-01-13T16:17:20;9.90;71.60
76263;DHT22;65080;50.908;6.916;2023-01-13T16:19:48;9.90;71.80
76263;DHT22;65080;50.908;6.916;2023-01-13T16:22:17;9.80;72.00
76263;DHT22;65080;50.908;6.916;2023-01-13T16:24:46;9.80;72.10
76263;DHT22;65080;50.908;6.916;2023-01-13T16:27:17;9.80;72.20
76263;DHT22;65080;50.908;6.916;2023-01-13T16:29:47;9.90;72.30
76263;DHT22;65080;50.908;6.916;2023-01-13T16:32:16;9.80;72.10
76263;DHT22;65080;50.908;6.916;2023-01-13T16:34:45;9.80;72.20
76263;DHT22;65080;50.908;6.916;2023-01-13T16:37:18;9.80;72.20